createdAt,value
2023-01-17T00:02:12.508Z,4.00
2023-01-17T00:04:59.200Z,3.96
2023-01-17T00:07:46.217Z,3.96
2023-01-17T00:10:18.601Z,3.94
2023-01-17T00:12:48.866Z,3.93
2023-01-17T00:15:20.150Z,3.90
2023-01-17T00:17:50.591Z,3.91
2023-01-17T00:20:39.878Z,3.93
2023-01-17T00:23:26.169Z,3.92
2023-01-17T00:26:07.212Z,3.91
2023-01-17T00:28:36.317Z,3.88
2023-01-17T00:31:06.700Z,3.85
2023-01-17T00:33:36.512Z,3.85
2023-01-17T00:36:05.294Z,3.76
2023-01-17T00:38:36.248Z,3.85
2023-01-17T00:41:06.002Z,3.83
2023-01-17T00:43:52.220Z,3.82
2023-01-17T00:46:39.831Z,3.76
2023-01-17T00:49:27.179Z,3.76
2023-01-17T00:52:13.971Z,3.73
2023-01-17T00:55:00.312Z,3.68
2023-01-17T00:57:46.146Z,3.69
2023-01-17T01:00:34.147Z,3.74
2023-01-17T01:03:20.186Z,3.76
2023-01-17T01:06:08.834Z,3.69
2023-01-17T01:08:55.008Z,3.66
2023-01-17T01:11:41.975Z,3.63
2023-01-17T01:14:29.471Z,3.61
2023-01-17T01:17:16.850Z,3.66
2023-01-17T01:20:02.956Z,3.59
2023-01-17T01:22:50.588Z,3.59
2023-01-17T01:25:36.783Z,3.57
2023-01-17T01:28:25.386Z,3.56
2023-01-17T01:31:11.319Z,3.56
2023-01-17T01:33:40.727Z,3.57
2023-01-17T01:36:10.557Z,3.58
2023-01-17T01:38:40.563Z,3.55
2023-01-17T01:41:10.959Z,3.53
2023-01-17T01:43:50.071Z,3.53
2023-01-17T01:46:23.198Z,3.49
2023-01-17T01:48:55.311Z,3.47
2023-01-17T01:51:30.224Z,3.43
2023-01-17T01:54:06.150Z,3.39
2023-01-17T01:56:35.322Z,3.25
2023-01-17T01:59:05.622Z,3.26
2023-01-17T02:01:37.271Z,3.25
2023-01-17T02:04:10.288Z,3.21
2023-01-17T02:06:40.695Z,3.27
2023-01-17T02:09:13.352Z,3.26
2023-01-17T02:11:42.424Z,3.26
2023-01-17T02:14:16.946Z,3.24
2023-01-17T02:17:03.259Z,3.23
2023-01-17T02:19:56.363Z,3.20
2023-01-17T02:23:02.952Z,3.21
2023-01-17T02:26:24.769Z,3.18
2023-01-17T02:29:11.190Z,3.17
2023-01-17T02:31:50.211Z,3.12
2023-01-17T02:34:23.263Z,3.13
2023-01-17T02:36:57.745Z,3.10
2023-01-17T02:39:34.157Z,3.11
2023-01-17T02:42:07.484Z,3.09
2023-01-17T02:44:42.121Z,3.10
2023-01-17T02:47:26.081Z,3.10
2023-01-17T02:50:00.381Z,3.10
2023-01-17T02:52:43.648Z,3.10
2023-01-17T02:55:26.186Z,3.05
2023-01-17T02:58:09.532Z,3.05
2023-01-17T03:00:53.163Z,3.05
2023-01-17T03:03:30.671Z,3.01
2023-01-17T03:06:08.261Z,2.87
2023-01-17T03:08:36.661Z,2.98
2023-01-17T03:11:05.632Z,2.94
2023-01-17T03:13:35.881Z,2.93
2023-01-17T03:16:10.845Z,2.93
2023-01-17T03:18:43.024Z,2.94
2023-01-17T03:21:11.369Z,2.95
2023-01-17T03:23:40.715Z,2.94
2023-01-17T03:26:09.516Z,2.94
2023-01-17T03:28:37.961Z,2.90
2023-01-17T03:31:08.271Z,2.89
2023-01-17T03:33:36.692Z,2.91
2023-01-17T03:36:07.586Z,2.89
2023-01-17T03:38:37.333Z,2.85
2023-01-17T03:41:08.222Z,2.76
2023-01-17T03:43:37.017Z,2.85
2023-01-17T03:46:07.550Z,2.82
2023-01-17T03:48:36.967Z,2.81
2023-01-17T03:51:06.997Z,2.81
2023-01-17T03:53:36.930Z,2.76
2023-01-17T03:56:05.597Z,2.73
2023-01-17T03:58:34.783Z,2.69
2023-01-17T04:01:04.412Z,2.64
2023-01-17T04:03:32.920Z,2.63
2023-01-17T04:06:02.145Z,2.60
2023-01-17T04:08:31.876Z,2.59
2023-01-17T04:11:00.316Z,2.59
2023-01-17T04:13:30.449Z,2.57
2023-01-17T04:15:59.178Z,2.58
2023-01-17T04:18:28.207Z,2.54
2023-01-17T04:20:56.567Z,2.55
2023-01-17T04:23:26.109Z,2.56
2023-01-17T04:25:56.779Z,2.61
2023-01-17T04:28:25.345Z,2.55
2023-01-17T04:30:53.799Z,2.53
2023-01-17T04:33:22.780Z,2.54
2023-01-17T04:35:51.129Z,2.57
2023-01-17T04:38:19.565Z,2.65
2023-01-17T04:40:49.016Z,2.65
2023-01-17T04:43:19.111Z,2.73
2023-01-17T04:45:47.492Z,2.72
2023-01-17T04:48:16.221Z,2.76
2023-01-17T04:50:45.884Z,2.71
2023-01-17T04:53:14.347Z,2.78
2023-01-17T04:55:46.650Z,2.80
2023-01-17T04:58:15.610Z,2.81
2023-01-17T05:00:46.315Z,2.81
2023-01-17T05:03:16.373Z,2.82
2023-01-17T05:05:46.323Z,2.85
2023-01-17T05:08:15.189Z,2.85
2023-01-17T05:10:44.601Z,2.87
2023-01-17T05:13:12.947Z,2.87
2023-01-17T05:15:42.611Z,2.88
2023-01-17T05:18:16.369Z,2.87
2023-01-17T05:20:45.621Z,2.89
2023-01-17T05:23:15.256Z,2.88
2023-01-17T05:25:44.395Z,2.89
2023-01-17T05:28:14.073Z,2.91
2023-01-17T05:30:42.644Z,2.93
2023-01-17T05:33:12.374Z,2.90
2023-01-17T05:35:42.651Z,2.89
2023-01-17T05:38:11.073Z,2.88
2023-01-17T05:40:40.343Z,2.85
2023-01-17T05:43:09.903Z,2.80
2023-01-17T05:45:38.557Z,2.80
2023-01-17T05:48:07.547Z,2.79
2023-01-17T05:50:39.849Z,2.78
2023-01-17T05:53:12.280Z,2.79
2023-01-17T05:55:43.071Z,2.79
2023-01-17T05:58:15.030Z,2.66
2023-01-17T06:00:43.929Z,2.51
2023-01-17T06:03:13.820Z,2.51
2023-01-17T06:05:42.851Z,2.45
2023-01-17T06:08:12.962Z,2.46
2023-01-17T06:10:41.441Z,2.52
2023-01-17T06:13:12.685Z,2.52
2023-01-17T06:15:42.830Z,2.48
2023-01-17T06:18:13.284Z,2.47
2023-01-17T06:20:41.696Z,2.42
2023-01-17T06:23:14.535Z,2.41
2023-01-17T06:25:44.649Z,2.38
2023-01-17T06:28:14.650Z,2.29
2023-01-17T06:30:43.874Z,2.29
2023-01-17T06:33:13.979Z,2.24
2023-01-17T06:35:49.438Z,2.16
2023-01-17T06:38:20.593Z,2.03
2023-01-17T06:40:49.289Z,2.08
2023-01-17T06:43:18.103Z,2.06
2023-01-17T06:45:47.179Z,1.99
2023-01-17T06:48:16.326Z,1.99
2023-01-17T06:50:46.700Z,2.02
2023-01-17T06:53:15.044Z,2.03
2023-01-17T06:55:44.832Z,1.98
2023-01-17T06:58:13.750Z,1.98
2023-01-17T07:00:42.127Z,1.99
2023-01-17T07:03:18.719Z,1.97
2023-01-17T07:05:47.300Z,1.94
2023-01-17T07:08:17.212Z,1.95
2023-01-17T07:10:48.417Z,1.93
2023-01-17T07:13:17.636Z,1.91
2023-01-17T07:15:45.975Z,1.75
2023-01-17T07:18:15.124Z,1.73
2023-01-17T07:20:44.334Z,1.63
2023-01-17T07:23:12.915Z,1.68
2023-01-17T07:25:41.336Z,1.72
2023-01-17T07:28:11.581Z,1.61
2023-01-17T07:30:40.240Z,1.60
2023-01-17T07:33:10.686Z,1.60
2023-01-17T07:35:39.172Z,1.62
2023-01-17T07:38:11.788Z,1.66
2023-01-17T07:40:42.402Z,1.69
2023-01-17T07:43:14.446Z,1.67
2023-01-17T07:45:44.580Z,1.65
2023-01-17T07:48:13.557Z,1.57
2023-01-17T07:50:43.272Z,1.61
2023-01-17T07:53:12.348Z,1.70
2023-01-17T07:55:41.292Z,1.72
2023-01-17T07:58:11.633Z,1.73
2023-01-17T08:00:42.482Z,1.75
2023-01-17T08:03:31.019Z,1.64
2023-01-17T08:06:00.309Z,1.82
2023-01-17T08:08:28.893Z,1.83
2023-01-17T08:10:58.285Z,1.90
2023-01-17T08:13:28.448Z,1.83
2023-01-17T08:16:02.320Z,1.61
2023-01-17T08:18:30.844Z,1.73
2023-01-17T08:20:59.399Z,1.65
2023-01-17T08:23:28.375Z,1.66
2023-01-17T08:26:01.069Z,1.64
2023-01-17T08:28:29.841Z,1.72
2023-01-17T08:30:59.864Z,1.85
2023-01-17T08:33:28.218Z,1.96
2023-01-17T08:35:56.703Z,2.12
2023-01-17T08:38:25.492Z,2.41
2023-01-17T08:40:54.468Z,2.57
2023-01-17T08:43:22.781Z,2.85
2023-01-17T08:45:52.081Z,3.29
2023-01-17T08:48:22.165Z,3.59
2023-01-17T08:50:50.793Z,3.93
2023-01-17T08:53:22.107Z,4.11
2023-01-17T08:55:51.577Z,4.16
2023-01-17T08:58:19.942Z,4.04
2023-01-17T09:00:48.815Z,3.98
2023-01-17T09:03:17.284Z,3.86
2023-01-17T09:05:47.446Z,3.90
2023-01-17T09:08:15.835Z,3.77
2023-01-17T09:10:44.148Z,3.82
2023-01-17T09:13:12.878Z,3.86
2023-01-17T09:15:41.499Z,3.80
2023-01-17T09:18:10.248Z,4.02
2023-01-17T09:20:38.585Z,4.06
2023-01-17T09:23:08.303Z,4.17
2023-01-17T09:25:36.682Z,3.79
2023-01-17T09:28:05.033Z,4.29
2023-01-17T09:30:34.276Z,4.38
2023-01-17T09:33:02.621Z,4.42
2023-01-17T09:35:31.011Z,4.45
2023-01-17T09:37:59.360Z,4.55
2023-01-17T09:40:29.123Z,4.62
2023-01-17T09:43:01.448Z,4.79
2023-01-17T09:45:32.503Z,4.82
2023-01-17T09:48:03.084Z,4.82
2023-01-17T09:50:34.231Z,4.81
2023-01-17T09:53:05.079Z,4.92
2023-01-17T09:55:41.048Z,5.08
2023-01-17T09:58:13.994Z,5.14
2023-01-17T10:00:51.925Z,5.15
2023-01-17T10:03:42.606Z,5.30
2023-01-17T10:06:22.583Z,5.42
2023-01-17T10:09:08.071Z,5.64
2023-01-17T10:11:50.384Z,5.86
2023-01-17T10:14:35.227Z,5.77
2023-01-17T10:17:13.886Z,5.79
2023-01-17T10:19:54.757Z,5.90
2023-01-17T10:22:38.981Z,6.02
2023-01-17T10:25:33.136Z,6.25
2023-01-17T10:28:11.551Z,6.47
2023-01-17T10:30:49.171Z,6.50
2023-01-17T10:33:21.589Z,6.75
2023-01-17T10:35:57.473Z,7.10
2023-01-17T10:38:31.901Z,7.00
2023-01-17T10:41:05.804Z,6.75
2023-01-17T10:43:47.532Z,6.77
2023-01-17T10:46:19.997Z,6.90
2023-01-17T10:48:52.566Z,6.37
2023-01-17T10:51:33.535Z,6.11
2023-01-17T10:54:13.111Z,5.91
2023-01-17T10:56:42.298Z,5.97
2023-01-17T10:59:23.467Z,6.14
2023-01-17T11:01:52.305Z,6.20
2023-01-17T11:04:23.004Z,6.10
2023-01-17T11:07:12.549Z,6.04
2023-01-17T11:09:42.613Z,5.92
2023-01-17T11:12:20.101Z,5.65
2023-01-17T11:15:04.166Z,5.80
2023-01-17T11:17:34.029Z,5.81
2023-01-17T11:20:25.251Z,6.02
2023-01-17T11:23:08.527Z,6.30
2023-01-17T11:25:37.870Z,6.39
2023-01-17T11:28:08.500Z,6.40
2023-01-17T11:30:39.168Z,6.53
2023-01-17T11:33:45.841Z,6.68
2023-01-17T11:36:20.005Z,7.11
2023-01-17T11:38:57.702Z,7.08
2023-01-17T11:41:28.175Z,7.07
2023-01-17T11:43:58.441Z,7.00
2023-01-17T11:46:29.673Z,7.19
2023-01-17T11:49:00.689Z,7.34
2023-01-17T11:51:31.317Z,7.48
2023-01-17T11:54:17.905Z,7.59
2023-01-17T11:56:46.560Z,7.73
2023-01-17T11:59:29.935Z,7.37
2023-01-17T12:02:31.712Z,7.42
2023-01-17T12:05:15.588Z,7.40
2023-01-17T12:07:53.039Z,7.45
2023-01-17T12:10:27.001Z,7.67
2023-01-17T12:13:24.528Z,7.70
2023-01-17T12:16:25.878Z,7.76
2023-01-17T12:19:05.955Z,7.84
2023-01-17T12:21:46.902Z,7.97
2023-01-17T12:24:37.933Z,8.13
2023-01-17T12:27:16.255Z,8.19
2023-01-17T12:29:58.860Z,8.28
2023-01-17T12:32:49.238Z,8.00
2023-01-17T12:35:24.309Z,7.89
2023-01-17T12:38:04.977Z,7.75
2023-01-17T12:40:40.751Z,7.68
2023-01-17T12:43:18.317Z,7.63
2023-01-17T12:45:49.047Z,7.74
2023-01-17T12:48:19.421Z,7.76
2023-01-17T12:50:54.282Z,7.78
2023-01-17T12:53:31.225Z,7.68
2023-01-17T12:56:05.368Z,7.69
2023-01-17T12:58:39.440Z,7.61
2023-01-17T13:01:18.897Z,7.50
2023-01-17T13:03:57.883Z,7.37
2023-01-17T13:06:36.538Z,7.17
2023-01-17T13:09:06.463Z,7.07
2023-01-17T13:11:44.088Z,7.12
2023-01-17T13:14:12.898Z,7.20
2023-01-17T13:16:45.722Z,7.25
2023-01-17T13:19:21.665Z,7.18
2023-01-17T13:21:51.756Z,7.07
2023-01-17T13:24:31.103Z,6.83
2023-01-17T13:27:28.443Z,6.82
2023-01-17T13:30:22.099Z,6.71
2023-01-17T13:33:20.284Z,6.59
2023-01-17T13:36:00.596Z,6.62
2023-01-17T13:38:45.480Z,6.67
2023-01-17T13:41:26.611Z,6.45
2023-01-17T13:44:10.057Z,6.33
2023-01-17T13:46:57.800Z,6.36
2023-01-17T13:49:45.059Z,6.38
2023-01-17T13:52:33.198Z,6.31
2023-01-17T13:55:05.006Z,6.40
2023-01-17T13:57:44.261Z,6.29
2023-01-17T14:00:58.764Z,6.17
2023-01-17T14:04:04.113Z,5.98
2023-01-17T14:06:38.427Z,5.92
2023-01-17T14:09:15.541Z,5.97
2023-01-17T14:12:06.127Z,6.02
2023-01-17T14:14:48.168Z,6.00
2023-01-17T14:17:58.698Z,5.96
2023-01-17T14:20:52.110Z,6.02
2023-01-17T14:23:33.916Z,6.04
2023-01-17T14:26:20.591Z,6.14
2023-01-17T14:28:50.486Z,6.39
2023-01-17T14:31:22.918Z,6.52
2023-01-17T14:33:51.539Z,6.89
2023-01-17T14:36:28.494Z,7.21
2023-01-17T14:38:57.048Z,7.44
2023-01-17T14:41:28.335Z,7.44
2023-01-17T14:43:59.939Z,7.46
2023-01-17T14:46:31.087Z,7.37
2023-01-17T14:49:05.725Z,7.39
2023-01-17T14:51:35.548Z,7.13
2023-01-17T14:54:15.560Z,6.74
2023-01-17T14:56:43.960Z,6.39
2023-01-17T14:59:17.248Z,6.23
2023-01-17T15:02:06.580Z,6.06
2023-01-17T15:04:39.630Z,5.81
2023-01-17T15:07:16.628Z,5.59
2023-01-17T15:09:46.296Z,5.36
2023-01-17T15:12:15.197Z,5.44
2023-01-17T15:14:47.333Z,5.40
2023-01-17T15:17:20.413Z,5.16
2023-01-17T15:19:52.927Z,5.05
2023-01-17T15:22:21.718Z,4.81
2023-01-17T15:24:50.623Z,4.86
2023-01-17T15:27:19.195Z,4.75
2023-01-17T15:29:49.989Z,4.85
2023-01-17T15:32:21.668Z,4.75
2023-01-17T15:34:52.177Z,4.70
2023-01-17T15:37:30.126Z,4.60
2023-01-17T15:40:08.923Z,4.58
2023-01-17T15:42:40.377Z,4.43
2023-01-17T15:45:19.853Z,4.27
2023-01-17T15:47:49.418Z,4.14
2023-01-17T15:50:30.624Z,4.06
2023-01-17T15:53:01.874Z,3.98
2023-01-17T15:55:33.447Z,3.93
2023-01-17T15:58:02.691Z,3.91
2023-01-17T16:00:39.214Z,3.82
2023-01-17T16:03:24.358Z,3.90
2023-01-17T16:05:54.244Z,3.70
2023-01-17T16:08:32.903Z,3.67
2023-01-17T16:11:06.377Z,3.65
2023-01-17T16:13:39.632Z,3.59
2023-01-17T16:16:15.431Z,3.65
2023-01-17T16:18:44.740Z,3.53
2023-01-17T16:21:23.021Z,3.50
2023-01-17T16:23:52.522Z,3.48
2023-01-17T16:26:21.399Z,3.46
2023-01-17T16:28:50.388Z,3.50
2023-01-17T16:31:20.198Z,3.44
2023-01-17T16:33:50.607Z,3.46
2023-01-17T16:36:20.813Z,3.42
2023-01-17T16:38:51.960Z,3.40
2023-01-17T16:41:21.042Z,3.26
2023-01-17T16:43:58.945Z,3.17
2023-01-17T16:46:29.438Z,3.23
2023-01-17T16:49:00.538Z,3.23
2023-01-17T16:51:29.561Z,3.27
2023-01-17T16:53:58.187Z,3.14
2023-01-17T16:56:26.738Z,3.35
2023-01-17T16:58:55.612Z,3.36
2023-01-17T17:01:25.269Z,3.43
2023-01-17T17:03:56.766Z,3.46
2023-01-17T17:06:25.132Z,3.53
2023-01-17T17:08:53.855Z,3.59
2023-01-17T17:11:23.857Z,3.64
2023-01-17T17:13:53.300Z,3.66
2023-01-17T17:16:26.929Z,3.69
2023-01-17T17:18:58.232Z,3.73
2023-01-17T17:21:29.148Z,3.71
2023-01-17T17:23:59.742Z,3.84
2023-01-17T17:26:31.422Z,3.87
2023-01-17T17:28:59.842Z,3.84
2023-01-17T17:31:28.843Z,3.87
2023-01-17T17:34:04.455Z,3.82
2023-01-17T17:36:32.778Z,3.92
2023-01-17T17:39:03.859Z,3.89
2023-01-17T17:41:34.935Z,3.98
2023-01-17T17:44:04.883Z,3.96
2023-01-17T17:46:34.031Z,4.00
2023-01-17T17:49:04.157Z,4.02
2023-01-17T17:51:35.604Z,4.03
2023-01-17T17:54:06.920Z,4.01
2023-01-17T17:56:36.035Z,4.08
2023-01-17T17:59:07.127Z,4.06
2023-01-17T18:01:38.140Z,4.01
2023-01-17T18:04:09.405Z,3.98
2023-01-17T18:06:39.212Z,3.99
2023-01-17T18:09:08.708Z,4.00
2023-01-17T18:11:39.116Z,3.87
2023-01-17T18:14:11.201Z,3.93
2023-01-17T18:16:42.223Z,3.90
2023-01-17T18:19:16.494Z,3.85
2023-01-17T18:21:44.884Z,3.99
2023-01-17T18:24:15.032Z,3.98
2023-01-17T18:26:44.747Z,3.96
2023-01-17T18:29:16.353Z,3.95
2023-01-17T18:31:45.749Z,3.96
2023-01-17T18:34:17.603Z,3.96
2023-01-17T18:36:46.165Z,3.96
2023-01-17T18:39:17.083Z,3.98
2023-01-17T18:41:45.531Z,3.98
2023-01-17T18:44:14.610Z,4.00
2023-01-17T18:46:46.692Z,3.96
2023-01-17T18:49:20.201Z,4.01
2023-01-17T18:51:51.062Z,4.04
2023-01-17T18:54:20.656Z,4.06
2023-01-17T18:56:49.227Z,4.09
2023-01-17T18:59:20.057Z,4.11
2023-01-17T19:01:48.499Z,4.11
2023-01-17T19:04:19.392Z,4.08
2023-01-17T19:06:49.005Z,4.06
2023-01-17T19:09:17.937Z,4.08
2023-01-17T19:11:48.123Z,4.05
2023-01-17T19:14:17.174Z,4.05
2023-01-17T19:16:45.646Z,3.96
2023-01-17T19:19:16.037Z,3.96
2023-01-17T19:21:46.057Z,3.88
2023-01-17T19:24:14.944Z,3.90
2023-01-17T19:26:43.994Z,3.91
2023-01-17T19:29:12.874Z,3.96
2023-01-17T19:31:43.510Z,3.99
2023-01-17T19:34:13.978Z,4.01
2023-01-17T19:36:42.923Z,4.02
2023-01-17T19:39:13.220Z,4.01
2023-01-17T19:41:43.677Z,4.02
2023-01-17T19:44:14.161Z,4.01
2023-01-17T19:46:42.642Z,3.99
2023-01-17T19:49:11.370Z,4.02
2023-01-17T19:51:40.765Z,4.03
2023-01-17T19:54:09.236Z,4.04
2023-01-17T19:56:39.269Z,4.04
2023-01-17T19:59:07.677Z,4.01
2023-01-17T20:01:36.340Z,3.95
2023-01-17T20:04:05.423Z,4.04
2023-01-17T20:06:36.348Z,4.05
2023-01-17T20:09:06.080Z,4.03
2023-01-17T20:11:34.780Z,3.97
2023-01-17T20:14:05.533Z,3.98
2023-01-17T20:16:37.115Z,3.96
2023-01-17T20:19:06.647Z,3.91
2023-01-17T20:21:35.198Z,3.90
2023-01-17T20:24:04.199Z,3.84
2023-01-17T20:26:35.794Z,3.80
2023-01-17T20:29:10.517Z,3.76
2023-01-17T20:31:40.247Z,3.68
2023-01-17T20:34:11.505Z,3.70
2023-01-17T20:36:42.124Z,3.65
2023-01-17T20:39:13.713Z,3.62
2023-01-17T20:41:43.929Z,3.46
2023-01-17T20:44:15.782Z,3.58
2023-01-17T20:46:45.482Z,3.58
2023-01-17T20:49:15.992Z,3.57
2023-01-17T20:51:45.908Z,3.53
2023-01-17T20:54:16.073Z,3.54
2023-01-17T20:56:46.722Z,3.54
2023-01-17T20:59:18.568Z,3.50
2023-01-17T21:01:47.750Z,3.48
2023-01-17T21:04:16.726Z,3.44
2023-01-17T21:06:45.474Z,3.43
2023-01-17T21:09:17.590Z,3.47
2023-01-17T21:11:45.958Z,3.47
2023-01-17T21:14:16.639Z,3.41
2023-01-17T21:16:45.003Z,3.44
2023-01-17T21:19:15.656Z,3.41
2023-01-17T21:22:02.624Z,3.32
2023-01-17T21:24:31.294Z,3.32
2023-01-17T21:27:01.039Z,3.39
2023-01-17T21:29:32.109Z,3.29
2023-01-17T21:32:01.106Z,3.34
2023-01-17T21:34:31.976Z,3.36
2023-01-17T21:37:00.417Z,3.34
2023-01-17T21:39:29.243Z,3.39
2023-01-17T21:41:58.444Z,3.38
2023-01-17T21:44:27.118Z,3.32
2023-01-17T21:46:57.816Z,3.26
2023-01-17T21:49:26.180Z,3.11
2023-01-17T21:52:13.816Z,3.05
2023-01-17T21:54:59.641Z,3.04
2023-01-17T21:57:47.576Z,2.98
2023-01-17T22:00:16.800Z,2.90
2023-01-17T22:02:49.050Z,2.95
2023-01-17T22:05:18.532Z,2.95
2023-01-17T22:08:02.381Z,2.91
2023-01-17T22:10:31.223Z,2.77
2023-01-17T22:12:59.591Z,2.84
2023-01-17T22:15:29.473Z,2.85
2023-01-17T22:17:59.620Z,2.89
2023-01-17T22:20:28.886Z,2.83
2023-01-17T22:22:58.103Z,2.81
2023-01-17T22:25:27.900Z,2.83
2023-01-17T22:27:56.892Z,2.83
2023-01-17T22:30:25.799Z,2.84
2023-01-17T22:32:56.766Z,2.82
2023-01-17T22:35:28.644Z,2.83
2023-01-17T22:37:57.039Z,2.86
2023-01-17T22:40:26.607Z,2.82
2023-01-17T22:42:55.740Z,2.80
2023-01-17T22:45:25.855Z,2.80
2023-01-17T22:47:55.502Z,2.76
2023-01-17T22:50:24.847Z,2.76
2023-01-17T22:52:54.813Z,2.78
2023-01-17T22:55:24.866Z,2.69
2023-01-17T22:57:53.227Z,2.69
2023-01-17T23:00:22.663Z,2.65
2023-01-17T23:02:51.492Z,2.66
2023-01-17T23:05:20.234Z,2.61
2023-01-17T23:07:51.403Z,2.54
2023-01-17T23:10:35.685Z,2.49
2023-01-17T23:13:04.116Z,2.50
2023-01-17T23:15:51.484Z,2.48
2023-01-17T23:18:37.404Z,2.48
2023-01-17T23:21:09.079Z,2.46
2023-01-17T23:23:37.433Z,2.45
2023-01-17T23:26:08.014Z,2.43
2023-01-17T23:28:37.010Z,2.45
2023-01-17T23:31:06.425Z,2.41
2023-01-17T23:33:35.299Z,2.37
2023-01-17T23:36:03.642Z,2.39
2023-01-17T23:38:38.008Z,2.39
2023-01-17T23:41:27.157Z,2.29
2023-01-17T23:43:57.987Z,2.33
2023-01-17T23:46:27.428Z,2.40
2023-01-17T23:48:56.281Z,2.33
2023-01-17T23:51:24.608Z,2.28
2023-01-17T23:53:57.686Z,2.30
2023-01-17T23:56:28.549Z,2.16
2023-01-17T23:58:56.892Z,2.28
